createdAt,value
2023-05-12T00:00:57.257Z,15.00
2023-05-12T00:03:25.450Z,12.25
2023-05-12T00:05:54.028Z,15.25
2023-05-12T00:08:23.684Z,10.50
2023-05-12T00:10:51.955Z,16.50
2023-05-12T00:13:23.738Z,15.50
2023-05-12T00:15:52.161Z,13.75
2023-05-12T00:18:20.307Z,16.50
2023-05-12T00:20:48.401Z,14.50
2023-05-12T00:23:16.451Z,16.50
2023-05-12T00:25:46.261Z,12.25
2023-05-12T00:28:14.385Z,12.00
2023-05-12T00:30:42.599Z,13.00
2023-05-12T00:33:11.210Z,11.00
2023-05-12T00:35:39.265Z,13.75
2023-05-12T00:38:07.288Z,13.25
2023-05-12T00:40:35.400Z,13.00
2023-05-12T00:43:04.977Z,11.50
2023-05-12T00:45:33.166Z,14.50
2023-05-12T00:48:01.290Z,9.00
2023-05-12T00:50:29.522Z,14.00
2023-05-12T00:52:58.268Z,10.50
2023-05-12T00:55:26.987Z,15.25
2023-05-12T00:57:55.430Z,14.50
2023-05-12T01:00:25.219Z,11.50
2023-05-12T01:02:53.619Z,13.50
2023-05-12T01:05:21.975Z,12.25
2023-05-12T01:07:50.721Z,16.25
2023-05-12T01:10:20.253Z,14.25
2023-05-12T01:12:48.916Z,13.50
2023-05-12T01:15:18.481Z,13.00
2023-05-12T01:17:54.723Z,14.50
2023-05-12T01:20:23.952Z,14.75
2023-05-12T01:22:52.956Z,17.00
2023-05-12T01:25:23.741Z,14.25
2023-05-12T01:27:53.892Z,16.00
2023-05-12T01:30:24.717Z,13.75
2023-05-12T01:32:54.787Z,14.00
2023-05-12T01:35:23.016Z,9.25
2023-05-12T01:37:58.560Z,15.25
2023-05-12T01:40:26.845Z,9.00
2023-05-12T01:42:57.709Z,13.75
2023-05-12T01:45:27.536Z,13.25
2023-05-12T01:47:55.631Z,12.75
2023-05-12T01:50:23.728Z,12.00
2023-05-12T01:52:51.892Z,14.25
2023-05-12T01:55:21.229Z,10.25
2023-05-12T01:57:53.950Z,14.00
2023-05-12T02:00:23.689Z,13.00
2023-05-12T02:02:54.802Z,14.50
2023-05-12T02:05:23.492Z,14.00
2023-05-12T02:07:52.110Z,15.25
2023-05-12T02:10:21.000Z,8.75
2023-05-12T02:12:49.648Z,16.75
2023-05-12T02:15:18.140Z,7.50
2023-05-12T02:17:50.468Z,15.50
2023-05-12T02:20:19.804Z,13.25
2023-05-12T02:22:48.010Z,13.25
2023-05-12T02:25:16.122Z,11.25
2023-05-12T02:27:45.180Z,17.75
2023-05-12T02:30:15.315Z,16.25
2023-05-12T02:32:43.443Z,14.50
2023-05-12T02:35:13.885Z,17.75
2023-05-12T02:37:42.876Z,15.50
2023-05-12T02:40:11.410Z,13.75
2023-05-12T02:42:41.518Z,13.00
2023-05-12T02:45:10.312Z,13.50
2023-05-12T02:47:38.454Z,12.75
2023-05-12T02:50:07.144Z,16.75
2023-05-12T02:52:36.594Z,9.50
2023-05-12T02:55:04.840Z,10.00
2023-05-12T02:57:34.372Z,10.00
2023-05-12T03:00:04.844Z,12.00
2023-05-12T03:02:35.132Z,13.75
2023-05-12T03:05:03.682Z,13.75
2023-05-12T03:07:32.004Z,12.50
2023-05-12T03:10:01.782Z,11.50
2023-05-12T03:12:30.568Z,12.00
2023-05-12T03:14:59.559Z,11.25
2023-05-12T03:17:28.149Z,12.25
2023-05-12T03:19:56.611Z,12.50
2023-05-12T03:22:24.901Z,12.50
2023-05-12T03:24:53.000Z,10.50
2023-05-12T03:27:23.167Z,9.25
2023-05-12T03:29:51.313Z,11.00
2023-05-12T03:32:19.400Z,12.75
2023-05-12T03:34:47.520Z,11.50
2023-05-12T03:37:16.684Z,7.75
2023-05-12T03:39:46.101Z,13.25
2023-05-12T03:42:15.035Z,9.00
2023-05-12T03:44:44.969Z,9.50
2023-05-12T03:47:13.824Z,8.00
2023-05-12T03:49:42.093Z,11.25
2023-05-12T03:52:10.383Z,8.75
2023-05-12T03:54:38.932Z,11.50
2023-05-12T03:57:07.606Z,10.50
2023-05-12T03:59:35.767Z,7.00
2023-05-12T04:02:07.857Z,5.75
2023-05-12T04:04:37.428Z,8.75
2023-05-12T04:07:05.863Z,7.50
2023-05-12T04:09:34.128Z,8.25
2023-05-12T04:12:02.255Z,9.00
2023-05-12T04:14:41.626Z,13.00
2023-05-12T04:17:12.952Z,7.00
2023-05-12T04:19:41.035Z,8.25
2023-05-12T04:22:09.143Z,7.75
2023-05-12T04:24:38.382Z,3.00
2023-05-12T04:27:08.543Z,9.75
2023-05-12T04:29:37.185Z,8.75
2023-05-12T04:32:05.875Z,9.00
2023-05-12T04:34:36.590Z,10.00
2023-05-12T04:37:04.936Z,9.25
2023-05-12T04:39:33.252Z,8.00
2023-05-12T04:42:02.184Z,6.00
2023-05-12T04:44:32.972Z,6.25
2023-05-12T04:47:01.630Z,8.50
2023-05-12T04:49:31.546Z,9.00
2023-05-12T04:52:01.133Z,9.50
2023-05-12T04:54:29.319Z,9.50
2023-05-12T04:56:57.490Z,7.00
2023-05-12T04:59:26.396Z,9.00
2023-05-12T05:01:56.395Z,9.00
2023-05-12T05:04:24.938Z,9.25
2023-05-12T05:06:53.098Z,8.75
2023-05-12T05:09:22.746Z,9.00
2023-05-12T05:11:51.109Z,9.50
2023-05-12T05:14:19.534Z,7.75
2023-05-12T05:16:48.571Z,11.00
2023-05-12T05:19:23.342Z,7.75
2023-05-12T05:22:03.525Z,7.00
2023-05-12T05:24:33.321Z,9.25
2023-05-12T05:27:01.458Z,7.75
2023-05-12T05:29:29.666Z,10.25
2023-05-12T05:31:58.064Z,8.50
2023-05-12T05:34:26.383Z,7.25
2023-05-12T05:36:54.763Z,9.75
2023-05-12T05:39:22.884Z,7.75
2023-05-12T05:41:52.727Z,9.25
2023-05-12T05:44:20.837Z,8.75
2023-05-12T05:46:49.022Z,9.00
2023-05-12T05:49:17.159Z,10.75
2023-05-12T05:51:45.241Z,7.25
2023-05-12T05:54:13.443Z,5.00
2023-05-12T05:56:41.783Z,9.50
2023-05-12T05:59:11.335Z,9.50
2023-05-12T06:01:39.712Z,10.00
2023-05-12T06:04:08.677Z,6.25
2023-05-12T06:06:37.872Z,8.50
2023-05-12T06:09:07.350Z,1.00
2023-05-12T06:11:35.521Z,9.75
2023-05-12T06:14:03.583Z,7.25
2023-05-12T06:16:33.128Z,8.75
2023-05-12T06:19:01.312Z,10.00
2023-05-12T06:21:29.697Z,10.25
2023-05-12T06:23:57.733Z,7.75
2023-05-12T06:26:25.913Z,0.50
2023-05-12T06:28:54.225Z,7.00
2023-05-12T06:31:22.549Z,8.00
2023-05-12T06:33:52.365Z,3.75
2023-05-12T06:36:20.689Z,10.75
2023-05-12T06:38:48.738Z,8.50
2023-05-12T06:41:16.826Z,7.67
2023-05-12T06:43:44.911Z,8.50
2023-05-12T06:46:15.069Z,10.75
2023-05-12T06:48:44.150Z,5.50
2023-05-12T06:51:14.019Z,6.00
2023-05-12T06:53:42.429Z,8.00
2023-05-12T06:56:11.569Z,9.00
2023-05-12T06:58:39.712Z,9.00
2023-05-12T07:01:08.044Z,9.75
2023-05-12T07:03:36.262Z,5.25
2023-05-12T07:06:04.586Z,5.00
2023-05-12T07:08:34.282Z,9.00
2023-05-12T07:11:02.609Z,6.00
2023-05-12T07:13:31.195Z,9.00
2023-05-12T07:16:00.632Z,6.75
2023-05-12T07:18:28.916Z,7.00
2023-05-12T07:20:57.731Z,6.00
2023-05-12T07:23:26.360Z,6.50
2023-05-12T07:25:56.271Z,3.00
2023-05-12T07:28:24.738Z,7.00
2023-05-12T07:30:52.989Z,6.00
2023-05-12T07:33:21.189Z,6.75
2023-05-12T07:35:49.283Z,8.00
2023-05-12T07:38:18.257Z,5.75
2023-05-12T07:40:46.453Z,7.50
2023-05-12T07:43:17.529Z,9.00
2023-05-12T07:45:46.190Z,9.00
2023-05-12T07:48:14.542Z,9.50
2023-05-12T07:50:42.783Z,6.00
2023-05-12T07:53:11.356Z,7.50
2023-05-12T07:55:39.607Z,3.50
2023-05-12T07:58:07.826Z,9.00
2023-05-12T08:00:37.300Z,5.00
2023-05-12T08:03:06.705Z,5.00
2023-05-12T08:05:35.270Z,4.50
2023-05-12T08:08:07.372Z,6.75
2023-05-12T08:10:35.476Z,5.75
2023-05-12T08:13:03.602Z,5.75
2023-05-12T08:15:31.951Z,4.50
2023-05-12T08:18:01.577Z,2.25
2023-05-12T08:20:29.760Z,2.50
2023-05-12T08:22:58.052Z,6.00
2023-05-12T08:25:27.944Z,3.25
2023-05-12T08:27:57.643Z,4.40
2023-05-12T08:30:25.767Z,4.20
2023-05-12T08:32:54.530Z,4.75
2023-05-12T08:35:24.953Z,7.00
2023-05-12T08:37:53.295Z,5.50
2023-05-12T08:40:22.603Z,3.25
2023-05-12T08:42:55.951Z,6.50
2023-05-12T08:45:24.472Z,6.00
2023-05-12T08:47:54.029Z,6.50
2023-05-12T08:50:24.754Z,9.00
2023-05-12T08:52:53.386Z,7.00
2023-05-12T08:55:29.588Z,6.00
2023-05-12T08:58:00.166Z,7.00
2023-05-12T09:00:33.859Z,7.00
2023-05-12T09:03:02.427Z,5.50
2023-05-12T09:05:32.224Z,5.00
2023-05-12T09:08:01.227Z,6.50
2023-05-12T09:10:34.323Z,5.40
2023-05-12T09:13:13.146Z,5.75
2023-05-12T09:15:43.451Z,6.00
2023-05-12T09:18:11.543Z,6.00
2023-05-12T09:20:41.392Z,6.00
2023-05-12T09:23:17.144Z,6.40
2023-05-12T09:25:47.187Z,6.00
2023-05-12T09:28:15.794Z,6.00
2023-05-12T09:30:44.033Z,5.40
2023-05-12T09:33:13.182Z,7.00
2023-05-12T09:35:43.676Z,7.00
2023-05-12T09:38:13.019Z,7.00
2023-05-12T09:40:43.298Z,6.00
2023-05-12T09:43:15.088Z,6.00
2023-05-12T09:45:44.361Z,6.00
2023-05-12T09:48:14.066Z,7.25
2023-05-12T09:50:48.655Z,6.25
2023-05-12T09:53:18.002Z,6.75
2023-05-12T09:55:46.592Z,7.00
2023-05-12T09:58:16.524Z,5.00
2023-05-12T10:01:12.862Z,7.00
2023-05-12T10:03:35.027Z,8.00
2023-05-12T10:06:06.926Z,7.00
2023-05-12T10:08:38.972Z,8.00
2023-05-12T10:11:07.303Z,8.00
2023-05-12T10:13:35.571Z,6.00
2023-05-12T10:16:04.103Z,3.25
2023-05-12T10:18:32.966Z,6.50
2023-05-12T10:21:01.910Z,8.00
2023-05-12T10:23:32.598Z,7.00
2023-05-12T10:26:05.150Z,6.00
2023-05-12T10:28:33.235Z,6.00
2023-05-12T10:31:01.632Z,8.25
2023-05-12T10:33:29.882Z,6.50
2023-05-12T10:35:58.175Z,5.00
2023-05-12T10:38:26.954Z,9.00
2023-05-12T10:40:59.007Z,7.25
2023-05-12T10:43:28.799Z,7.75
2023-05-12T10:46:10.013Z,9.75
2023-05-12T10:48:39.026Z,10.75
2023-05-12T10:51:11.600Z,9.00
2023-05-12T10:53:49.052Z,8.50
2023-05-12T10:56:23.392Z,6.00
2023-05-12T10:59:07.819Z,8.00
2023-05-12T11:01:37.002Z,6.00
2023-05-12T11:04:13.134Z,4.75
2023-05-12T11:06:42.733Z,11.50
2023-05-12T11:09:13.350Z,7.75
2023-05-12T11:11:45.762Z,10.00
2023-05-12T11:14:14.211Z,7.25
2023-05-12T11:16:45.671Z,4.00
2023-05-12T11:19:13.983Z,7.50
2023-05-12T11:21:46.072Z,6.40
2023-05-12T11:24:14.333Z,5.00
2023-05-12T11:26:43.888Z,6.00
2023-05-12T11:29:11.997Z,6.50
2023-05-12T11:31:40.308Z,11.00
2023-05-12T11:34:13.187Z,4.25
2023-05-12T11:36:42.871Z,8.00
2023-05-12T11:39:15.033Z,6.00
2023-05-12T11:41:44.983Z,7.00
2023-05-12T11:44:14.256Z,5.75
2023-05-12T11:46:42.737Z,7.50
2023-05-12T11:49:12.646Z,7.00
2023-05-12T11:51:44.814Z,8.50
2023-05-12T11:54:13.069Z,11.00
2023-05-12T11:56:48.666Z,9.25
2023-05-12T11:59:26.938Z,7.75
2023-05-12T12:01:57.430Z,8.50
2023-05-12T12:04:35.853Z,7.75
2023-05-12T12:07:04.397Z,8.50
2023-05-12T12:09:33.593Z,7.25
2023-05-12T12:12:02.256Z,4.00
2023-05-12T12:14:32.213Z,7.75
2023-05-12T12:17:00.573Z,6.75
2023-05-12T12:19:29.242Z,6.00
2023-05-12T12:21:57.800Z,5.75
2023-05-12T12:24:26.395Z,5.50
2023-05-12T12:26:54.809Z,7.75
2023-05-12T12:29:24.056Z,8.00
2023-05-12T12:31:53.702Z,5.75
2023-05-12T12:34:21.937Z,7.50
2023-05-12T12:36:53.468Z,5.00
2023-05-12T12:39:23.469Z,6.50
2023-05-12T12:41:51.937Z,6.00
2023-05-12T12:44:21.439Z,6.25
2023-05-12T12:46:49.626Z,7.00
2023-05-12T12:49:19.206Z,4.75
2023-05-12T12:51:47.959Z,6.00
2023-05-12T12:54:16.360Z,6.25
2023-05-12T12:56:44.730Z,5.25
2023-05-12T12:59:13.127Z,4.75
2023-05-12T13:01:41.398Z,5.75
2023-05-12T13:04:09.622Z,2.75
2023-05-12T13:06:39.517Z,5.60
2023-05-12T13:09:07.920Z,4.80
2023-05-12T13:11:36.112Z,5.00
2023-05-12T13:14:05.183Z,4.75
2023-05-12T13:16:33.583Z,2.50
2023-05-12T13:19:01.772Z,3.25
2023-05-12T13:21:30.004Z,5.50
2023-05-12T13:23:59.566Z,4.75
2023-05-12T13:26:27.752Z,7.50
2023-05-12T13:28:55.908Z,7.00
2023-05-12T13:31:24.101Z,6.00
2023-05-12T13:33:52.487Z,3.75
2023-05-12T13:36:20.677Z,5.80
2023-05-12T13:38:48.878Z,3.75
2023-05-12T13:41:19.110Z,5.25
2023-05-12T13:43:48.423Z,6.00
2023-05-12T13:46:16.688Z,7.00
2023-05-12T13:48:45.101Z,6.75
2023-05-12T13:51:13.189Z,5.25
2023-05-12T13:53:43.215Z,6.50
2023-05-12T13:56:20.462Z,7.25
2023-05-12T13:58:48.737Z,6.25
2023-05-12T14:01:19.545Z,7.00
2023-05-12T14:03:47.760Z,6.25
2023-05-12T14:06:16.044Z,6.75
2023-05-12T14:08:44.198Z,6.25
2023-05-12T14:11:12.756Z,6.75
2023-05-12T14:13:42.791Z,8.00
2023-05-12T14:16:12.944Z,6.75
2023-05-12T14:18:43.909Z,7.00
2023-05-12T14:21:12.361Z,5.00
2023-05-12T14:23:40.663Z,3.00
2023-05-12T14:26:09.172Z,7.25
2023-05-12T14:28:38.998Z,7.00
2023-05-12T14:31:08.910Z,5.50
2023-05-12T14:33:37.327Z,7.25
2023-05-12T14:36:08.125Z,6.25
2023-05-12T14:38:37.053Z,6.25
2023-05-12T14:41:08.292Z,6.75
2023-05-12T14:43:36.462Z,7.00
2023-05-12T14:46:04.905Z,4.75
2023-05-12T14:48:34.526Z,4.00
2023-05-12T14:51:03.676Z,4.00
2023-05-12T14:53:32.461Z,4.00
2023-05-12T14:56:00.608Z,4.25
2023-05-12T14:58:28.811Z,3.50
2023-05-12T15:00:57.224Z,6.25
2023-05-12T15:03:25.624Z,5.25
2023-05-12T15:06:05.742Z,6.00
2023-05-12T15:08:34.856Z,5.25
2023-05-12T15:11:04.144Z,3.00
2023-05-12T15:13:32.498Z,3.00
2023-05-12T15:16:01.497Z,3.00
2023-05-12T15:18:30.012Z,6.75
2023-05-12T15:20:59.588Z,2.25
2023-05-12T15:23:52.451Z,3.25
2023-05-12T15:26:33.647Z,4.00
2023-05-12T15:29:02.393Z,3.00
2023-05-12T15:31:31.003Z,5.25
2023-05-12T15:33:59.422Z,6.00
2023-05-12T15:36:29.747Z,5.75
2023-05-12T15:38:57.911Z,4.75
2023-05-12T15:41:26.072Z,6.25
2023-05-12T15:43:54.219Z,7.80
2023-05-12T15:46:22.954Z,6.00
2023-05-12T15:48:51.141Z,4.50
2023-05-12T15:51:19.257Z,8.50
2023-05-12T15:53:48.800Z,6.00
2023-05-12T15:56:17.127Z,6.75
2023-05-12T15:58:45.786Z,5.80
2023-05-12T16:01:13.962Z,6.75
2023-05-12T16:03:42.551Z,5.60
2023-05-12T16:06:11.001Z,5.40
2023-05-12T16:08:39.131Z,4.00
2023-05-12T16:11:09.022Z,7.25
2023-05-12T16:13:37.138Z,5.75
2023-05-12T16:16:05.474Z,8.00
2023-05-12T16:18:33.783Z,7.25
2023-05-12T16:21:04.145Z,9.00
2023-05-12T16:23:32.487Z,8.50
2023-05-12T16:26:00.725Z,5.00
2023-05-12T16:28:30.259Z,11.00
2023-05-12T16:30:58.405Z,9.00
2023-05-12T16:33:26.529Z,9.00
2023-05-12T16:35:54.725Z,9.00
2023-05-12T16:38:22.963Z,8.50
2023-05-12T16:40:51.182Z,7.75
2023-05-12T16:43:19.306Z,6.75
2023-05-12T16:45:48.977Z,4.00
2023-05-12T16:48:17.197Z,6.00
2023-05-12T16:50:45.578Z,5.25
2023-05-12T16:53:13.806Z,5.25
2023-05-12T16:55:41.859Z,5.75
2023-05-12T16:58:10.032Z,5.00
2023-05-12T17:00:38.115Z,3.00
2023-05-12T17:03:09.205Z,6.50
2023-05-12T17:05:38.686Z,6.00
2023-05-12T17:08:06.805Z,4.25
2023-05-12T17:10:34.946Z,6.75
2023-05-12T17:13:03.107Z,7.00
2023-05-12T17:15:31.412Z,6.00
2023-05-12T17:18:01.672Z,7.50
2023-05-12T17:20:31.496Z,7.25
2023-05-12T17:22:59.817Z,8.50
2023-05-12T17:25:29.718Z,6.00
2023-05-12T17:27:57.952Z,5.50
2023-05-12T17:30:26.121Z,8.50
2023-05-12T17:32:54.269Z,7.25
2023-05-12T17:35:24.100Z,10.75
2023-05-12T17:37:55.698Z,10.00
2023-05-12T17:40:24.187Z,10.00
2023-05-12T17:42:52.387Z,10.25
2023-05-12T17:45:20.712Z,8.75
2023-05-12T17:47:50.497Z,9.50
2023-05-12T17:50:18.764Z,9.00
2023-05-12T17:52:47.106Z,10.25
2023-05-12T17:55:16.948Z,10.75
2023-05-12T17:57:45.128Z,8.50
2023-05-12T18:00:14.407Z,6.00
2023-05-12T18:02:43.028Z,9.00
2023-05-12T18:05:11.420Z,9.00
2023-05-12T18:07:39.538Z,8.25
2023-05-12T18:10:11.390Z,9.00
2023-05-12T18:12:41.007Z,12.00
2023-05-12T18:15:16.653Z,9.00
2023-05-12T18:17:45.029Z,9.75
2023-05-12T18:20:13.617Z,8.75
2023-05-12T18:22:41.826Z,11.00
2023-05-12T18:25:13.055Z,10.00
2023-05-12T18:27:42.770Z,10.75
2023-05-12T18:30:11.529Z,9.50
2023-05-12T18:32:41.272Z,9.00
2023-05-12T18:35:11.665Z,15.75
2023-05-12T18:37:40.085Z,10.25
2023-05-12T18:40:09.080Z,11.50
2023-05-12T18:42:37.460Z,13.75
2023-05-12T18:45:08.113Z,9.75
2023-05-12T18:47:36.270Z,5.00
2023-05-12T18:50:04.767Z,13.00
2023-05-12T18:52:33.161Z,17.50
2023-05-12T18:55:01.229Z,14.00
2023-05-12T18:57:29.437Z,18.00
2023-05-12T18:59:57.902Z,12.00
2023-05-12T19:02:33.640Z,12.25
2023-05-12T19:05:02.641Z,16.25
2023-05-12T19:07:31.926Z,11.25
2023-05-12T19:10:00.129Z,15.50
2023-05-12T19:12:28.601Z,18.00
2023-05-12T19:14:56.707Z,13.50
2023-05-12T19:17:24.909Z,13.00
2023-05-12T19:19:54.579Z,13.50
2023-05-12T19:22:23.595Z,17.25
2023-05-12T19:24:52.030Z,20.25
2023-05-12T19:27:20.439Z,20.00
2023-05-12T19:29:48.764Z,17.25
2023-05-12T19:32:17.115Z,16.00
2023-05-12T19:34:45.356Z,10.00
2023-05-12T19:37:14.949Z,14.25
2023-05-12T19:39:43.173Z,15.25
2023-05-12T19:42:11.274Z,14.00
2023-05-12T19:44:39.443Z,13.75
2023-05-12T19:47:08.930Z,10.50
2023-05-12T19:49:37.328Z,14.75
2023-05-12T19:52:05.973Z,17.25
2023-05-12T19:54:35.945Z,13.00
2023-05-12T19:57:04.209Z,15.25
2023-05-12T19:59:32.314Z,17.00
2023-05-12T20:02:00.463Z,15.00
2023-05-12T20:04:28.560Z,15.25
2023-05-12T20:06:57.493Z,14.00
2023-05-12T20:09:26.505Z,15.25
2023-05-12T20:11:56.328Z,20.00
2023-05-12T20:14:24.423Z,25.00
2023-05-12T20:16:52.565Z,21.00
2023-05-12T20:19:20.703Z,25.50
2023-05-12T20:21:48.824Z,22.00
2023-05-12T20:24:16.953Z,22.50
2023-05-12T20:26:45.063Z,16.50
2023-05-12T20:29:20.853Z,14.50
2023-05-12T20:31:49.437Z,13.50
2023-05-12T20:34:18.002Z,14.00
2023-05-12T20:36:46.428Z,17.50
2023-05-12T20:39:15.281Z,20.50
2023-05-12T20:41:44.681Z,17.50
2023-05-12T20:44:14.218Z,19.50
2023-05-12T20:46:42.594Z,20.75
2023-05-12T20:49:10.884Z,13.75
2023-05-12T20:51:39.087Z,18.00
2023-05-12T20:54:07.426Z,17.50
2023-05-12T20:56:35.509Z,17.00
2023-05-12T20:59:03.644Z,11.00
2023-05-12T21:01:33.281Z,19.00
2023-05-12T21:04:01.649Z,13.75
2023-05-12T21:06:29.966Z,6.75
2023-05-12T21:08:58.061Z,18.00
2023-05-12T21:11:26.967Z,20.75
2023-05-12T21:13:55.047Z,22.50
2023-05-12T21:16:23.189Z,19.50
2023-05-12T21:18:52.800Z,19.25
2023-05-12T21:21:20.870Z,17.00
2023-05-12T21:23:49.003Z,18.00
2023-05-12T21:26:17.089Z,19.75
2023-05-12T21:28:45.168Z,27.50
2023-05-12T21:31:13.241Z,19.50
2023-05-12T21:33:41.491Z,20.50
2023-05-12T21:36:11.166Z,18.50
2023-05-12T21:38:39.836Z,23.00
2023-05-12T21:41:07.903Z,20.25
2023-05-12T21:43:36.132Z,18.50
2023-05-12T21:46:04.631Z,22.25
2023-05-12T21:48:33.539Z,19.75
2023-05-12T21:51:02.135Z,19.50
2023-05-12T21:53:31.694Z,22.75
2023-05-12T21:55:59.950Z,16.50
2023-05-12T21:58:28.366Z,19.50
2023-05-12T22:00:56.504Z,23.25
2023-05-12T22:03:25.489Z,17.00
2023-05-12T22:05:53.565Z,19.75
2023-05-12T22:08:21.590Z,22.75
2023-05-12T22:10:51.081Z,16.50
2023-05-12T22:13:19.297Z,19.00
2023-05-12T22:15:47.392Z,22.25
2023-05-12T22:18:15.585Z,22.50
2023-05-12T22:20:43.630Z,24.75
2023-05-12T22:23:11.692Z,23.00
2023-05-12T22:25:39.702Z,22.50
2023-05-12T22:28:09.151Z,25.50
2023-05-12T22:30:37.213Z,23.00
2023-05-12T22:33:05.356Z,18.00
2023-05-12T22:35:33.504Z,20.75
2023-05-12T22:38:01.544Z,16.25
2023-05-12T22:40:30.408Z,16.75
2023-05-12T22:42:58.452Z,16.00
2023-05-12T22:45:27.860Z,16.75
2023-05-12T22:47:56.270Z,19.00
2023-05-12T22:50:24.808Z,17.75
2023-05-12T22:52:58.165Z,16.75
2023-05-12T22:55:29.340Z,17.75
2023-05-12T22:57:57.502Z,19.75
2023-05-12T23:00:25.662Z,17.50
2023-05-12T23:02:55.346Z,14.00
2023-05-12T23:05:23.456Z,17.50
2023-05-12T23:07:51.625Z,18.50
2023-05-12T23:10:20.075Z,15.25
2023-05-12T23:12:48.947Z,17.75
2023-05-12T23:15:16.983Z,18.00
2023-05-12T23:17:45.099Z,17.50
2023-05-12T23:20:15.060Z,17.25
2023-05-12T23:22:43.158Z,14.25
2023-05-12T23:25:11.474Z,19.00
2023-05-12T23:27:39.503Z,18.50
2023-05-12T23:30:08.263Z,19.00
2023-05-12T23:32:36.412Z,17.75
2023-05-12T23:35:04.569Z,14.00
2023-05-12T23:37:34.021Z,16.25
2023-05-12T23:40:02.019Z,22.00
2023-05-12T23:42:32.060Z,16.75
2023-05-12T23:45:00.141Z,13.50
2023-05-12T23:47:28.699Z,19.50
2023-05-12T23:49:56.764Z,15.25
2023-05-12T23:52:24.787Z,19.25
2023-05-12T23:54:54.333Z,17.25
2023-05-12T23:57:22.396Z,16.25
2023-05-12T23:59:50.470Z,17.50
